Time;durP1;ratioP1;P1;durP2;ratioP2;P2;SDS_P1;SDS_P2;PMS_P1;PMS_P2;Temp;Humidity;BMP_temperature;BMP_pressure;BME280_temperature;BME280_humidity;BME280_pressure;Samples;Min_cycle;Max_cycle;Signal;HPM_P1;HPM_P2
2023/05/31 00:03:19;;;;;;;;;;;;;;;;;;5051271;28;19913;-67
2023/05/31 00:10:42;;;;;;;;;;;;;;;;;;5152973;27;20006;-67
2023/05/31 00:13:08;;;;;;;;;;;;;;;;;;5153171;27;19989;-67
2023/05/31 00:17:48;;;;;;;;;;;;;;;;;;5091371;28;20238;-67
2023/05/31 00:21:51;;;;;;;;;;;;;;;;;;5153450;27;20006;-68
2023/05/31 00:24:17;;;;;;;;;;;;;;;;;;5152870;27;19964;-68
2023/05/31 00:28:56;;;;;;;;;;;;;;;;;;5071881;28;19917;-68
2023/05/31 00:31:22;;;;;;;;;;;;;;;;;;5071194;28;19989;-68
2023/05/31 00:33:48;;;;;;;;;;;;;;;;;;5071059;28;19916;-68
2023/05/31 00:38:30;;;;;;;;;;;;;;;;;;5091834;27;20376;-68
2023/05/31 00:44:05;;;;;;;;;;;;;;;;;;5092035;27;19923;-68
2023/05/31 00:46:31;;;;;;;;;;;;;;;;;;5091035;28;20007;-68
2023/05/31 00:50:49;;;;;;;;;;;;;;;;;;5091645;27;20292;-68
2023/05/31 00:53:15;;;;;;;;;;;;;;;;;;5091024;28;19999;-68
2023/05/31 00:55:41;;;;;;;;;;;;;;;;;;5091548;28;19992;-68
2023/05/31 01:01:11;;;;;;;;;;;;;;;;;;5091336;28;19923;-68
2023/05/31 01:04:28;;;;;;;;;;;;;;;;;;5091520;27;19918;-68
2023/05/31 01:08:29;;;;;;;;;;;;;;;;;;5091102;27;19916;-68
2023/05/31 01:12:57;;;;;;;;;;;;;;;;;;5091750;27;19916;-68
2023/05/31 01:15:23;;;;;;;;;;;;;;;;;;5089747;28;19913;-68
2023/05/31 01:17:49;;;;;;;;;;;;;;;;;;5091576;28;20311;-68
2023/05/31 01:22:27;;;;;;;;;;;;;;;;;;5091244;27;19923;-69
2023/05/31 01:25:23;;;;;;;;;;;;;;;;;;5092232;27;19923;-69
2023/05/31 01:27:49;;;;;;;;;;;;;;;;;;5090984;28;20006;-69
2023/05/31 01:31:54;;;;;;;;;;;;;;;;;;5153398;27;20275;-69
2023/05/31 01:34:20;;;;;;;;;;;;;;;;;;5153214;27;19911;-68
2023/05/31 01:36:46;;;;;;;;;;;;;;;;;;5152467;27;19912;-68
2023/05/31 01:39:12;;;;;;;;;;;;;;;;;;5152843;27;20031;-68
2023/05/31 01:41:38;;;;;;;;;;;;;;;;;;5152718;27;19932;-68
2023/05/31 01:48:20;;;;;;;;;;;;;;;;;;5091517;27;19923;-68
2023/05/31 01:51:49;;;;;;;;;;;;;;;;;;5091462;28;19916;-68
2023/05/31 01:56:47;;;;;;;;;;;;;;;;;;5091241;28;19916;-68
2023/05/31 02:03:22;;;;;;;;;;;;;;;;;;5091223;28;19923;-68
2023/05/31 02:05:48;;;;;;;;;;;;;;;;;;5091374;28;20010;-69
2023/05/31 02:08:14;;;;;;;;;;;;;;;;;;5091252;28;19909;-68
2023/05/31 02:10:40;;;;;;;;;;;;;;;;;;5090920;28;19915;-69
2023/05/31 02:13:06;;;;;;;;;;;;;;;;;;5091224;28;19991;-69
2023/05/31 02:15:32;;;;;;;;;;;;;;;;;;5091197;28;19912;-69
2023/05/31 02:17:58;;;;;;;;;;;;;;;;;;5090760;28;20369;-69
2023/05/31 02:20:24;;;;;;;;;;;;;;;;;;5091505;28;19909;-68
2023/05/31 02:23:37;;;;;;;;;;;;;;;;;;5112247;27;19916;-67
2023/05/31 02:26:04;;;;;;;;;;;;;;;;;;5110029;28;20030;-68
2023/05/31 02:30:07;;;;;;;;;;;;;;;;;;5091702;27;19917;-68
2023/05/31 02:32:37;;;;;;;;;;;;;;;;;;5090939;28;19912;-68
2023/05/31 02:36:18;;;;;;;;;;;;;;;;;;5091479;27;19913;-67
2023/05/31 02:38:44;;;;;;;;;;;;;;;;;;5089702;28;19919;-68
2023/05/31 02:41:09;;;;;;;;;;;;;;;;;;5091360;28;20284;-67
2023/05/31 02:43:36;;;;;;;;;;;;;;;;;;5091278;28;19912;-67
2023/05/31 02:46:02;;;;;;;;;;;;;;;;;;5090859;28;19908;-68
2023/05/31 02:48:28;;;;;;;;;;;;;;;;;;5091375;28;19962;-68
2023/05/31 02:50:54;;;;;;;;;;;;;;;;;;5091339;28;19995;-68
2023/05/31 02:53:20;;;;;;;;;;;;;;;;;;5090661;28;19946;-67
2023/05/31 02:55:46;;;;;;;;;;;;;;;;;;5089729;28;19920;-67
2023/05/31 02:58:14;;;;;;;;;;;;;;;;;;5091032;28;19916;-68
2023/05/31 03:00:40;;;;;;;;;;;;;;;;;;5090595;28;19944;-68
2023/05/31 03:03:06;;;;;;;;;;;;;;;;;;5089600;28;20329;-67
2023/05/31 03:05:33;;;;;;;;;;;;;;;;;;5089539;28;19908;-67
2023/05/31 03:09:19;;;;;;;;;;;;;;;;;;5091682;27;20414;-68
2023/05/31 03:14:14;;;;;;;;;;;;;;;;;;5091275;27;19923;-67
2023/05/31 03:16:58;;;;;;;;;;;;;;;;;;5092190;27;19916;-69
2023/05/31 03:19:24;;;;;;;;;;;;;;;;;;5090169;28;19995;-68
2023/05/31 03:21:50;;;;;;;;;;;;;;;;;;5090891;28;19908;-69
2023/05/31 03:26:29;;;;;;;;;;;;;;;;;;5091983;27;19917;-68
2023/05/31 03:28:55;;;;;;;;;;;;;;;;;;5090944;28;19934;-68
2023/05/31 03:34:02;;;;;;;;;;;;;;;;;;5091497;27;19916;-67
2023/05/31 03:36:28;;;;;;;;;;;;;;;;;;5090916;28;20010;-67
2023/05/31 03:39:48;;;;;;;;;;;;;;;;;;5091508;27;19919;-68
2023/05/31 03:42:14;;;;;;;;;;;;;;;;;;5091153;28;19912;-68
2023/05/31 03:44:40;;;;;;;;;;;;;;;;;;5091276;28;19909;-70
2023/05/31 03:47:06;;;;;;;;;;;;;;;;;;5091255;28;19909;-67
2023/05/31 03:56:17;;;;;;;;;;;;;;;;;;5091024;28;19916;-67
2023/05/31 04:00:31;;;;;;;;;;;;;;;;;;5091585;27;19912;-68
2023/05/31 04:02:57;;;;;;;;;;;;;;;;;;5090996;28;19952;-68
2023/05/31 04:05:23;;;;;;;;;;;;;;;;;;5091294;28;19950;-68
2023/05/31 04:07:50;;;;;;;;;;;;;;;;;;5091276;28;20373;-68
2023/05/31 04:10:16;;;;;;;;;;;;;;;;;;5091049;28;19913;-68
2023/05/31 04:12:41;;;;;;;;;;;;;;;;;;5091381;28;20356;-68
2023/05/31 04:15:07;;;;;;;;;;;;;;;;;;5091092;28;20280;-69
2023/05/31 04:17:33;;;;;;;;;;;;;;;;;;5090649;28;20258;-69
2023/05/31 04:19:59;;;;;;;;;;;;;;;;;;5090996;28;20276;-69
2023/05/31 04:22:25;;;;;;;;;;;;;;;;;;5090969;28;20314;-69
2023/05/31 04:26:42;;;;;;;;;;;;;;;;;;5091958;27;19917;-69
2023/05/31 04:29:08;;;;;;;;;;;;;;;;;;5091288;28;20295;-69
2023/05/31 04:32:51;;;;;;;;;;;;;;;;;;5090944;27;19923;-68
2023/05/31 04:35:17;;;;;;;;;;;;;;;;;;5091297;28;19912;-68
2023/05/31 04:37:44;;;;;;;;;;;;;;;;;;5083485;28;19959;-65
2023/05/31 04:40:10;;;;;;;;;;;;;;;;;;5089525;28;19917;-65
2023/05/31 04:45:06;;;;;;;;;;;;;;;;;;5090235;27;19916;-65
2023/05/31 04:49:36;;;;;;;;;;;;;;;;;;5089932;27;19916;-66
2023/05/31 04:52:02;;;;;;;;;;;;;;;;;;5090600;28;20012;-67
2023/05/31 04:54:28;;;;;;;;;;;;;;;;;;5091043;28;20005;-66
2023/05/31 04:56:54;;;;;;;;;;;;;;;;;;5089340;28;19977;-66
2023/05/31 05:00:49;;;;;;;;;;;;;;;;;;5149654;27;19915;-66
2023/05/31 05:03:15;;;;;;;;;;;;;;;;;;5132063;27;19999;-67
2023/05/31 05:05:41;;;;;;;;;;;;;;;;;;5149052;27;19950;-67
2023/05/31 05:08:54;;;;;;;;;;;;;;;;;;5089756;27;19916;-67
2023/05/31 05:11:21;;;;;;;;;;;;;;;;;;5089347;28;19912;-68
2023/05/31 05:13:47;;;;;;;;;;;;;;;;;;5088214;28;19912;-68
2023/05/31 05:17:13;;;;;;;;;;;;;;;;;;5091475;27;19922;-67
2023/05/31 05:24:35;;;;;;;;;;;;;;;;;;5091079;27;19926;-68
2023/05/31 05:27:01;;;;;;;;;;;;;;;;;;5090540;28;19913;-69
2023/05/31 05:29:27;;;;;;;;;;;;;;;;;;5089483;28;19909;-68
2023/05/31 05:33:30;;;;;;;;;;;;;;;;;;5090989;27;20300;-67
2023/05/31 05:35:56;;;;;;;;;;;;;;;;;;5090280;28;19912;-67
2023/05/31 05:38:22;;;;;;;;;;;;;;;;;;5090519;28;20376;-66
2023/05/31 05:44:48;;;;;;;;;;;;;;;;;;5129979;27;19999;-67
2023/05/31 05:47:14;;;;;;;;;;;;;;;;;;5130411;28;19999;-67
2023/05/31 05:50:10;;;;;;;;;;;;;;;;;;5090007;27;19923;-67
2023/05/31 05:52:36;;;;;;;;;;;;;;;;;;5090251;28;19912;-67
2023/05/31 05:59:52;;;;;;;;;;;;;;;;;;5087481;27;19938;-68
2023/05/31 06:05:01;;;;;;;;;;;;;;;;;;5089125;27;19916;-68
2023/05/31 06:07:27;;;;;;;;;;;;;;;;;;5089401;28;20283;-67
2023/05/31 06:11:52;;;;;;;;;;;;;;;;;;5089925;27;19922;-67
2023/05/31 06:14:18;;;;;;;;;;;;;;;;;;5089498;28;20019;-67
2023/05/31 06:16:44;;;;;;;;;;;;;;;;;;5088887;28;20007;-67
2023/05/31 06:19:10;;;;;;;;;;;;;;;;;;5087822;28;19962;-66
2023/05/31 06:23:12;;;;;;;;;;;;;;;;;;5024622;27;2484148;-65
2023/05/31 06:25:38;;;;;;;;;;;;;;;;;;5113235;28;20353;-65
2023/05/31 06:28:04;;;;;;;;;;;;;;;;;;5131610;28;19990;-65
2023/05/31 06:30:30;;;;;;;;;;;;;;;;;;5131094;28;19937;-66
2023/05/31 06:35:30;;;;;;;;;;;;;;;;;;5110334;27;19926;-64
2023/05/31 06:37:56;;;;;;;;;;;;;;;;;;5110276;28;19934;-66
2023/05/31 06:42:32;;;;;;;;;;;;;;;;;;5069968;28;19921;-67
2023/05/31 06:44:58;;;;;;;;;;;;;;;;;;5069102;28;19912;-62
2023/05/31 06:48:13;;;;;;;;;;;;;;;;;;5090442;28;19916;-62
2023/05/31 06:52:25;;;;;;;;;;;;;;;;;;5090231;27;19919;-62
2023/05/31 06:54:52;;;;;;;;;;;;;;;;;;5090106;28;19912;-63
2023/05/31 06:57:18;;;;;;;;;;;;;;;;;;5089539;28;20356;-64
2023/05/31 07:00:57;;;;;;;;;;;;;;;;;;5131416;27;19922;-63
2023/05/31 07:05:31;;;;;;;;;;;;;;;;;;5108994;27;19920;-63
2023/05/31 07:07:57;;;;;;;;;;;;;;;;;;5094478;28;19912;-62
2023/05/31 07:10:23;;;;;;;;;;;;;;;;;;5094524;28;19955;-63
2023/05/31 07:12:50;;;;;;;;;;;;;;;;;;5104242;28;19919;-63
2023/05/31 07:15:16;;;;;;;;;;;;;;;;;;5098787;28;19924;-61
2023/05/31 07:17:42;;;;;;;;;;;;;;;;;;5097756;28;19915;-63
2023/05/31 07:20:38;;;;;;;;;;;;;;;;;;5108659;27;19916;-63
2023/05/31 07:23:04;;;;;;;;;;;;;;;;;;5106534;28;19947;-63
2023/05/31 07:25:42;;;;;;;;;;;;;;;;;;5138708;27;19919;-63
2023/05/31 07:29:35;;;;;;;;;;;;;;;;;;5089059;27;19927;-62
2023/05/31 07:32:01;;;;;;;;;;;;;;;;;;5090391;28;19959;-63
2023/05/31 07:34:27;;;;;;;;;;;;;;;;;;5089610;28;19944;-62
2023/05/31 07:36:53;;;;;;;;;;;;;;;;;;5090301;28;19953;-62
2023/05/31 07:39:19;;;;;;;;;;;;;;;;;;5079712;28;19927;-63
2023/05/31 07:41:45;;;;;;;;;;;;;;;;;;5087831;28;19962;-62
2023/05/31 07:48:50;;;;;;;;;;;;;;;;;;5149274;27;20001;-65
2023/05/31 07:51:16;;;;;;;;;;;;;;;;;;5131464;27;20014;-64
2023/05/31 07:53:42;;;;;;;;;;;;;;;;;;5128573;28;20275;-64
2023/05/31 07:56:43;;;;;;;;;;;;;;;;;;5102331;28;20425;-64
2023/05/31 07:59:09;;;;;;;;;;;;;;;;;;5092092;28;20226;-64
2023/05/31 08:01:35;;;;;;;;;;;;;;;;;;5086250;28;19991;-64
2023/05/31 08:04:01;;;;;;;;;;;;;;;;;;5085198;28;19916;-64
2023/05/31 08:07:57;;;;;;;;;;;;;;;;;;5093876;27;19938;-64
2023/05/31 08:10:24;;;;;;;;;;;;;;;;;;5109037;28;19912;-66
2023/05/31 08:13:31;;;;;;;;;;;;;;;;;;5076903;27;2157047;-65
2023/05/31 08:15:57;;;;;;;;;;;;;;;;;;5132787;27;20009;-65
2023/05/31 08:19:05;;;;;;;;;;;;;;;;;;5090657;27;19927;-66
2023/05/31 08:22:49;;;;;;;;;;;;;;;;;;5089812;28;20299;-65
2023/05/31 08:26:45;;;;;;;;;;;;;;;;;;5109040;27;19916;-65
2023/05/31 08:29:11;;;;;;;;;;;;;;;;;;5111381;28;19912;-65
2023/05/31 08:34:25;;;;;;;;;;;;;;;;;;5090656;27;19999;-63
2023/05/31 08:36:51;;;;;;;;;;;;;;;;;;5089314;28;20396;-65
2023/05/31 08:39:17;;;;;;;;;;;;;;;;;;5090301;28;19913;-65
2023/05/31 08:46:24;;;;;;;;;;;;;;;;;;5147029;27;20331;-66
2023/05/31 08:48:50;;;;;;;;;;;;;;;;;;5130093;28;19998;-66
2023/05/31 08:54:16;;;;;;;;;;;;;;;;;;4696318;27;11870673;-65
2023/05/31 08:56:42;;;;;;;;;;;;;;;;;;5109180;28;19992;-65
2023/05/31 08:59:08;;;;;;;;;;;;;;;;;;5107732;28;20363;-64
2023/05/31 09:01:35;;;;;;;;;;;;;;;;;;5108542;28;19919;-65
2023/05/31 09:04:01;;;;;;;;;;;;;;;;;;5109373;28;20372;-65
2023/05/31 09:06:27;;;;;;;;;;;;;;;;;;5090357;28;19915;-65
2023/05/31 09:10:48;;;;;;;;;;;;;;;;;;5089105;28;19920;-65
2023/05/31 09:13:14;;;;;;;;;;;;;;;;;;5088882;28;19919;-64
2023/05/31 09:15:40;;;;;;;;;;;;;;;;;;5087913;28;20571;-64
2023/05/31 09:18:06;;;;;;;;;;;;;;;;;;5087543;28;19916;-64
2023/05/31 09:20:48;;;;;;;;;;;;;;;;;;5087495;27;20296;-65
2023/05/31 09:23:14;;;;;;;;;;;;;;;;;;5088941;28;19973;-66
2023/05/31 09:26:02;;;;;;;;;;;;;;;;;;5090297;27;19930;-65
2023/05/31 09:28:44;;;;;;;;;;;;;;;;;;5134784;27;20277;-65
2023/05/31 09:31:41;;;;;;;;;;;;;;;;;;5106959;27;19926;-64
2023/05/31 09:34:06;;;;;;;;;;;;;;;;;;5093253;28;20407;-65
2023/05/31 09:36:34;;;;;;;;;;;;;;;;;;5095989;28;19959;-65
2023/05/31 09:39:00;;;;;;;;;;;;;;;;;;5089745;28;19912;-65
2023/05/31 09:41:26;;;;;;;;;;;;;;;;;;5089264;28;19917;-66
2023/05/31 09:43:52;;;;;;;;;;;;;;;;;;5083136;28;19923;-65
2023/05/31 09:47:24;;;;;;;;;;;;;;;;;;5108368;27;19912;-65
2023/05/31 09:49:51;;;;;;;;;;;;;;;;;;5116250;28;19915;-66
2023/05/31 09:52:16;;;;;;;;;;;;;;;;;;5116097;27;19956;-66
2023/05/31 09:54:42;;;;;;;;;;;;;;;;;;5108314;28;20338;-65
2023/05/31 09:57:08;;;;;;;;;;;;;;;;;;5108550;28;20378;-66
2023/05/31 09:59:34;;;;;;;;;;;;;;;;;;5110388;28;19969;-65
2023/05/31 10:02:00;;;;;;;;;;;;;;;;;;5121091;28;19946;-65
2023/05/31 10:04:26;;;;;;;;;;;;;;;;;;5109891;28;19918;-67
2023/05/31 10:06:52;;;;;;;;;;;;;;;;;;5108529;28;19927;-68
2023/05/31 10:09:18;;;;;;;;;;;;;;;;;;5108991;28;19908;-68
2023/05/31 10:11:44;;;;;;;;;;;;;;;;;;5108089;28;19998;-68
2023/05/31 10:16:11;;;;;;;;;;;;;;;;;;5073469;27;2108423;-67
2023/05/31 10:18:37;;;;;;;;;;;;;;;;;;5150214;27;20244;-67
2023/05/31 10:21:03;;;;;;;;;;;;;;;;;;5149948;27;20006;-67
2023/05/31 10:24:16;;;;;;;;;;;;;;;;;;5089346;27;19923;-68
2023/05/31 10:26:42;;;;;;;;;;;;;;;;;;5089829;28;19912;-67
2023/05/31 10:31:51;;;;;;;;;;;;;;;;;;5089514;27;20623;-67
2023/05/31 10:34:16;;;;;;;;;;;;;;;;;;5087919;28;19999;-67
2023/05/31 10:36:42;;;;;;;;;;;;;;;;;;5088137;28;20299;-68
2023/05/31 10:39:09;;;;;;;;;;;;;;;;;;5088117;28;19960;-67
2023/05/31 10:41:35;;;;;;;;;;;;;;;;;;5088767;28;19942;-67
2023/05/31 10:44:01;;;;;;;;;;;;;;;;;;5088114;28;19999;-66
2023/05/31 10:46:27;;;;;;;;;;;;;;;;;;5092275;28;19954;-66
2023/05/31 10:48:53;;;;;;;;;;;;;;;;;;5109836;28;19908;-66
2023/05/31 10:51:58;;;;;;;;;;;;;;;;;;5083720;27;19926;-66
2023/05/31 10:54:24;;;;;;;;;;;;;;;;;;5090051;28;19912;-65
2023/05/31 10:57:43;;;;;;;;;;;;;;;;;;5119632;27;19920;-65
2023/05/31 11:00:11;;;;;;;;;;;;;;;;;;5110143;28;19918;-65
2023/05/31 11:04:25;;;;;;;;;;;;;;;;;;5151382;27;19911;-65
2023/05/31 11:08:34;;;;;;;;;;;;;;;;;;5090855;27;19916;-65
2023/05/31 11:12:23;;;;;;;;;;;;;;;;;;5131187;27;19920;-66
2023/05/31 11:14:49;;;;;;;;;;;;;;;;;;5131907;28;19954;-66
2023/05/31 11:17:15;;;;;;;;;;;;;;;;;;5131637;28;19918;-66
2023/05/31 11:19:42;;;;;;;;;;;;;;;;;;5120902;28;19913;-66
2023/05/31 11:22:08;;;;;;;;;;;;;;;;;;5110522;28;19919;-66
2023/05/31 11:24:34;;;;;;;;;;;;;;;;;;5110885;28;19907;-66
2023/05/31 11:27:00;;;;;;;;;;;;;;;;;;5110033;28;20318;-67
2023/05/31 11:29:26;;;;;;;;;;;;;;;;;;5110017;28;19912;-67
2023/05/31 11:31:55;;;;;;;;;;;;;;;;;;5110435;28;20015;-67
2023/05/31 11:34:21;;;;;;;;;;;;;;;;;;5110507;28;19908;-67
2023/05/31 11:36:47;;;;;;;;;;;;;;;;;;5108024;28;19943;-66
2023/05/31 11:39:13;;;;;;;;;;;;;;;;;;5127844;28;19966;-66
2023/05/31 11:41:39;;;;;;;;;;;;;;;;;;5125746;28;19908;-66
2023/05/31 11:44:05;;;;;;;;;;;;;;;;;;5110520;28;20376;-66
2023/05/31 11:46:31;;;;;;;;;;;;;;;;;;5094510;28;19919;-66
2023/05/31 11:48:57;;;;;;;;;;;;;;;;;;5115047;28;19908;-66
2023/05/31 11:51:23;;;;;;;;;;;;;;;;;;5108916;28;19920;-66
2023/05/31 11:53:49;;;;;;;;;;;;;;;;;;5109088;28;19908;-66
2023/05/31 11:56:15;;;;;;;;;;;;;;;;;;5108586;28;19918;-66
2023/05/31 11:58:41;;;;;;;;;;;;;;;;;;5108285;28;19908;-66
2023/05/31 12:01:08;;;;;;;;;;;;;;;;;;5107954;28;19916;-66
2023/05/31 12:03:34;;;;;;;;;;;;;;;;;;5107691;28;20368;-66
2023/05/31 12:06:00;;;;;;;;;;;;;;;;;;5084444;28;19919;-70
2023/05/31 12:08:28;;;;;;;;;;;;;;;;;;5108073;28;19965;-70
2023/05/31 12:10:54;;;;;;;;;;;;;;;;;;5107832;28;20022;-70
2023/05/31 12:13:20;;;;;;;;;;;;;;;;;;5108152;28;19912;-70
2023/05/31 12:15:46;;;;;;;;;;;;;;;;;;5108189;28;19912;-69
2023/05/31 12:18:12;;;;;;;;;;;;;;;;;;5107867;28;19981;-69
2023/05/31 12:20:38;;;;;;;;;;;;;;;;;;5108005;28;19909;-69
2023/05/31 12:23:04;;;;;;;;;;;;;;;;;;5098376;28;20104;-69
2023/05/31 12:25:30;;;;;;;;;;;;;;;;;;5095814;28;19908;-69
2023/05/31 12:27:56;;;;;;;;;;;;;;;;;;5094683;28;19908;-69
2023/05/31 12:30:22;;;;;;;;;;;;;;;;;;5093561;28;20295;-69
2023/05/31 12:32:48;;;;;;;;;;;;;;;;;;5094530;28;19965;-69
2023/05/31 12:35:13;;;;;;;;;;;;;;;;;;5096165;28;19912;-69
2023/05/31 12:37:39;;;;;;;;;;;;;;;;;;5095387;28;19908;-70
2023/05/31 12:40:05;;;;;;;;;;;;;;;;;;5095664;28;20326;-69
2023/05/31 12:42:31;;;;;;;;;;;;;;;;;;5096049;28;19958;-70
2023/05/31 12:44:57;;;;;;;;;;;;;;;;;;5096069;28;19908;-69
2023/05/31 12:47:23;;;;;;;;;;;;;;;;;;5096329;28;19915;-69
2023/05/31 12:51:00;;;;;;;;;;;;;;;;;;5152815;27;19998;-70
2023/05/31 12:53:26;;;;;;;;;;;;;;;;;;5152816;27;19965;-69
2023/05/31 12:55:52;;;;;;;;;;;;;;;;;;5153010;27;19914;-69
2023/05/31 12:58:18;;;;;;;;;;;;;;;;;;5152364;27;19915;-68
2023/05/31 13:00:44;;;;;;;;;;;;;;;;;;5152601;27;19994;-68
2023/05/31 13:04:29;;;;;;;;;;;;;;;;;;5091186;27;19917;-69
2023/05/31 13:07:30;;;;;;;;;;;;;;;;;;5091425;27;19917;-69
2023/05/31 13:12:01;;;;;;;;;;;;;;;;;;5152866;27;19922;-70
2023/05/31 13:14:37;;;;;;;;;;;;;;;;;;5152949;27;20025;-69
2023/05/31 13:17:03;;;;;;;;;;;;;;;;;;5152958;27;20002;-69
2023/05/31 13:19:29;;;;;;;;;;;;;;;;;;5152740;27;19945;-69
2023/05/31 13:21:55;;;;;;;;;;;;;;;;;;5152793;27;19939;-69
2023/05/31 13:24:21;;;;;;;;;;;;;;;;;;5152762;27;20278;-69
2023/05/31 13:26:47;;;;;;;;;;;;;;;;;;5152696;27;20343;-70
2023/05/31 13:29:49;;;;;;;;;;;;;;;;;;5111919;27;19916;-70
2023/05/31 13:32:15;;;;;;;;;;;;;;;;;;5111566;28;19919;-70
2023/05/31 13:36:50;;;;;;;;;;;;;;;;;;5153197;27;20353;-68
2023/05/31 13:39:46;;;;;;;;;;;;;;;;;;5091622;27;20303;-71
2023/05/31 13:47:27;;;;;;;;;;;;;;;;;;5090947;28;20276;-71
2023/05/31 13:49:53;;;;;;;;;;;;;;;;;;5091602;28;20300;-70
2023/05/31 13:54:54;;;;;;;;;;;;;;;;;;5152705;27;19931;-69
2023/05/31 13:58:33;;;;;;;;;;;;;;;;;;5091846;27;19913;-69
2023/05/31 14:00:59;;;;;;;;;;;;;;;;;;5090791;28;20376;-69
2023/05/31 14:06:03;;;;;;;;;;;;;;;;;;5091844;27;20368;-69
2023/05/31 14:08:30;;;;;;;;;;;;;;;;;;5091058;28;20277;-69
2023/05/31 14:10:56;;;;;;;;;;;;;;;;;;5091567;28;19912;-70
2023/05/31 14:13:22;;;;;;;;;;;;;;;;;;5089971;28;19913;-69
2023/05/31 14:15:48;;;;;;;;;;;;;;;;;;5090811;28;19913;-70
2023/05/31 14:21:14;;;;;;;;;;;;;;;;;;5092233;27;19916;-69
2023/05/31 14:24:53;;;;;;;;;;;;;;;;;;5092024;27;19939;-69
2023/05/31 14:27:30;;;;;;;;;;;;;;;;;;5071986;28;20288;-70
2023/05/31 14:29:56;;;;;;;;;;;;;;;;;;5070750;28;20007;-71
2023/05/31 14:34:42;;;;;;;;;;;;;;;;;;5112201;27;19916;-70
2023/05/31 14:37:08;;;;;;;;;;;;;;;;;;5111431;28;19919;-70
2023/05/31 14:39:33;;;;;;;;;;;;;;;;;;5111712;28;19908;-69
2023/05/31 14:41:59;;;;;;;;;;;;;;;;;;5111604;28;19961;-71
2023/05/31 14:44:25;;;;;;;;;;;;;;;;;;5111270;28;19990;-69
2023/05/31 14:46:57;;;;;;;;;;;;;;;;;;5111688;28;19915;-70
2023/05/31 14:49:53;;;;;;;;;;;;;;;;;;5091152;27;19917;-70
2023/05/31 14:59:01;;;;;;;;;;;;;;;;;;5111690;27;19915;-70
2023/05/31 15:01:53;;;;;;;;;;;;;;;;;;5091830;27;19938;-69
2023/05/31 15:07:20;;;;;;;;;;;;;;;;;;5153309;27;20236;-71
2023/05/31 15:09:46;;;;;;;;;;;;;;;;;;5153012;27;19912;-69
2023/05/31 15:12:12;;;;;;;;;;;;;;;;;;5133797;27;19914;-69
2023/05/31 15:14:38;;;;;;;;;;;;;;;;;;5152850;27;19907;-70
2023/05/31 15:17:04;;;;;;;;;;;;;;;;;;5152894;27;20410;-69
2023/05/31 15:21:14;;;;;;;;;;;;;;;;;;5091491;27;19919;-69
2023/05/31 15:23:40;;;;;;;;;;;;;;;;;;5091309;28;19958;-69
2023/05/31 15:26:08;;;;;;;;;;;;;;;;;;5090893;28;19909;-69
2023/05/31 15:29:22;;;;;;;;;;;;;;;;;;5091691;28;19916;-69
2023/05/31 15:31:48;;;;;;;;;;;;;;;;;;5090063;28;19916;-70
2023/05/31 15:34:14;;;;;;;;;;;;;;;;;;5091784;28;19913;-69
2023/05/31 15:36:40;;;;;;;;;;;;;;;;;;5091329;28;19962;-70
2023/05/31 15:39:06;;;;;;;;;;;;;;;;;;5090696;28;19908;-69
2023/05/31 15:41:52;;;;;;;;;;;;;;;;;;5091546;27;19916;-69
2023/05/31 15:44:18;;;;;;;;;;;;;;;;;;5090019;28;20026;-69
2023/05/31 15:47:06;;;;;;;;;;;;;;;;;;5152866;27;20010;-69
2023/05/31 15:50:36;;;;;;;;;;;;;;;;;;5153080;27;19922;-68
2023/05/31 15:53:02;;;;;;;;;;;;;;;;;;5152669;27;20005;-69
2023/05/31 15:55:28;;;;;;;;;;;;;;;;;;5152829;27;19908;-69
2023/05/31 15:57:54;;;;;;;;;;;;;;;;;;5152856;27;19908;-69
2023/05/31 16:00:20;;;;;;;;;;;;;;;;;;5152314;27;19914;-69
2023/05/31 16:05:19;;;;;;;;;;;;;;;;;;5153065;27;19935;-68
2023/05/31 16:09:26;;;;;;;;;;;;;;;;;;5153616;27;20323;-69
2023/05/31 16:11:52;;;;;;;;;;;;;;;;;;5152932;27;19954;-69
2023/05/31 16:14:17;;;;;;;;;;;;;;;;;;5152311;27;19913;-70
2023/05/31 16:16:43;;;;;;;;;;;;;;;;;;5152959;27;19960;-70
2023/05/31 16:21:38;;;;;;;;;;;;;;;;;;5152925;27;19915;-69
2023/05/31 16:25:09;;;;;;;;;;;;;;;;;;5091969;27;19916;-69
2023/05/31 16:33:21;;;;;;;;;;;;;;;;;;5092158;27;19917;-68
2023/05/31 16:35:47;;;;;;;;;;;;;;;;;;5090875;28;19912;-68
2023/05/31 16:38:28;;;;;;;;;;;;;;;;;;5091716;27;19916;-69
2023/05/31 16:41:15;;;;;;;;;;;;;;;;;;5091754;28;19916;-68
2023/05/31 16:45:03;;;;;;;;;;;;;;;;;;5091537;27;19916;-70
2023/05/31 16:47:29;;;;;;;;;;;;;;;;;;5091497;28;19922;-70
2023/05/31 16:52:18;;;;;;;;;;;;;;;;;;5092129;27;19923;-68
2023/05/31 16:54:44;;;;;;;;;;;;;;;;;;5091608;28;19920;-69
2023/05/31 16:57:37;;;;;;;;;;;;;;;;;;5091311;27;19919;-69
2023/05/31 17:00:26;;;;;;;;;;;;;;;;;;5091498;27;19922;-69
2023/05/31 17:02:52;;;;;;;;;;;;;;;;;;5091025;28;19958;-69
2023/05/31 17:05:18;;;;;;;;;;;;;;;;;;5090265;28;19912;-69
2023/05/31 17:07:44;;;;;;;;;;;;;;;;;;5090879;28;20327;-69
2023/05/31 17:10:10;;;;;;;;;;;;;;;;;;5089611;28;19987;-70
2023/05/31 17:12:36;;;;;;;;;;;;;;;;;;5090655;28;19908;-70
2023/05/31 17:16:17;;;;;;;;;;;;;;;;;;5152547;27;20458;-69
2023/05/31 17:18:43;;;;;;;;;;;;;;;;;;5152320;27;19915;-69
2023/05/31 17:21:46;;;;;;;;;;;;;;;;;;5092280;27;19923;-69
2023/05/31 17:24:12;;;;;;;;;;;;;;;;;;5091369;28;19913;-69
2023/05/31 17:36:08;;;;;;;;;;;;;;;;;;5111853;27;19916;-69
2023/05/31 17:38:34;;;;;;;;;;;;;;;;;;5111382;28;19912;-69
2023/05/31 17:43:50;;;;;;;;;;;;;;;;;;5091918;27;19919;-70
2023/05/31 17:55:18;;;;;;;;;;;;;;;;;;5092165;27;19916;-70
2023/05/31 18:04:27;;;;;;;;;;;;;;;;;;5153492;27;19916;-71
2023/05/31 18:06:53;;;;;;;;;;;;;;;;;;5152611;27;19923;-71
2023/05/31 18:09:20;;;;;;;;;;;;;;;;;;5152853;27;19907;-70
2023/05/31 18:11:46;;;;;;;;;;;;;;;;;;5134393;27;19907;-70
2023/05/31 18:14:12;;;;;;;;;;;;;;;;;;5152352;27;19935;-69
2023/05/31 18:16:38;;;;;;;;;;;;;;;;;;5152690;27;20284;-70
2023/05/31 18:19:03;;;;;;;;;;;;;;;;;;5152707;27;19915;-70
2023/05/31 18:21:30;;;;;;;;;;;;;;;;;;5152079;27;19907;-70
2023/05/31 18:23:55;;;;;;;;;;;;;;;;;;5152030;27;19923;-70
2023/05/31 18:26:22;;;;;;;;;;;;;;;;;;5132818;27;19907;-70
2023/05/31 18:28:48;;;;;;;;;;;;;;;;;;5150183;27;20006;-69
2023/05/31 18:31:14;;;;;;;;;;;;;;;;;;5150917;27;19911;-69
2023/05/31 18:33:40;;;;;;;;;;;;;;;;;;5152209;27;20283;-69
2023/05/31 18:36:15;;;;;;;;;;;;;;;;;;5111461;27;19916;-70
2023/05/31 18:41:12;;;;;;;;;;;;;;;;;;5089392;27;20392;-72
2023/05/31 18:43:38;;;;;;;;;;;;;;;;;;5090385;28;19924;-70
2023/05/31 18:48:36;;;;;;;;;;;;;;;;;;5090837;27;19916;-70
2023/05/31 18:53:00;;;;;;;;;;;;;;;;;;5152250;27;20009;-70
2023/05/31 18:55:26;;;;;;;;;;;;;;;;;;5152841;27;19958;-69
2023/05/31 18:57:52;;;;;;;;;;;;;;;;;;5152374;27;19954;-69
2023/05/31 19:02:13;;;;;;;;;;;;;;;;;;5091417;27;19923;-68
2023/05/31 19:06:28;;;;;;;;;;;;;;;;;;5152971;27;20014;-69
2023/05/31 19:09:31;;;;;;;;;;;;;;;;;;5091367;27;19912;-68
2023/05/31 19:11:57;;;;;;;;;;;;;;;;;;5090973;28;19913;-71
2023/05/31 19:14:24;;;;;;;;;;;;;;;;;;5090790;28;19916;-69
2023/05/31 19:16:50;;;;;;;;;;;;;;;;;;5091282;28;19930;-70
2023/05/31 19:25:11;;;;;;;;;;;;;;;;;;5152755;27;19918;-70
2023/05/31 19:27:37;;;;;;;;;;;;;;;;;;5134328;27;19972;-69
2023/05/31 19:33:11;;;;;;;;;;;;;;;;;;5150286;27;20371;-68
2023/05/31 19:36:24;;;;;;;;;;;;;;;;;;5151412;27;19911;-70
2023/05/31 19:39:22;;;;;;;;;;;;;;;;;;5172679;27;19921;-70
2023/05/31 19:41:49;;;;;;;;;;;;;;;;;;5172496;27;19911;-70
2023/05/31 19:45:32;;;;;;;;;;;;;;;;;;5089799;27;19916;-70
2023/05/31 19:47:58;;;;;;;;;;;;;;;;;;5090204;28;19995;-68
2023/05/31 19:52:09;;;;;;;;;;;;;;;;;;5150657;27;19915;-69
2023/05/31 19:56:07;;;;;;;;;;;;;;;;;;5151066;27;19911;-70
2023/05/31 19:58:34;;;;;;;;;;;;;;;;;;5150949;27;20367;-69
2023/05/31 20:06:22;;;;;;;;;;;;;;;;;;5111435;28;19965;-69
2023/05/31 20:08:48;;;;;;;;;;;;;;;;;;5111910;28;19912;-70
2023/05/31 20:12:28;;;;;;;;;;;;;;;;;;5153548;27;19920;-70
2023/05/31 20:14:54;;;;;;;;;;;;;;;;;;5152515;27;19918;-70
2023/05/31 20:17:20;;;;;;;;;;;;;;;;;;5152869;27;19907;-69
2023/05/31 20:19:46;;;;;;;;;;;;;;;;;;5152755;27;19914;-70
2023/05/31 20:23:23;;;;;;;;;;;;;;;;;;5091595;27;19939;-69
2023/05/31 20:33:08;;;;;;;;;;;;;;;;;;5153162;27;20347;-70
2023/05/31 20:35:34;;;;;;;;;;;;;;;;;;5152492;27;19950;-69
2023/05/31 20:38:01;;;;;;;;;;;;;;;;;;5153111;27;20002;-68
2023/05/31 20:43:36;;;;;;;;;;;;;;;;;;5152579;27;20339;-69
2023/05/31 20:46:02;;;;;;;;;;;;;;;;;;5152887;27;20014;-70
2023/05/31 20:50:32;;;;;;;;;;;;;;;;;;5152520;27;20352;-70
2023/05/31 20:53:50;;;;;;;;;;;;;;;;;;5091857;27;19922;-70
2023/05/31 20:58:40;;;;;;;;;;;;;;;;;;5153416;27;20289;-70
2023/05/31 21:01:06;;;;;;;;;;;;;;;;;;5152978;27;19911;-70
2023/05/31 21:06:02;;;;;;;;;;;;;;;;;;5091709;28;19989;-69
2023/05/31 21:08:28;;;;;;;;;;;;;;;;;;5091545;28;19916;-69
2023/05/31 21:10:54;;;;;;;;;;;;;;;;;;5090857;28;19954;-69
2023/05/31 21:13:20;;;;;;;;;;;;;;;;;;5091288;28;19934;-68
2023/05/31 21:15:46;;;;;;;;;;;;;;;;;;5091151;28;19912;-69
2023/05/31 21:18:12;;;;;;;;;;;;;;;;;;5090725;28;19916;-69
2023/05/31 21:20:38;;;;;;;;;;;;;;;;;;5091107;28;19912;-69
2023/05/31 21:26:33;;;;;;;;;;;;;;;;;;5152966;27;19915;-70
2023/05/31 21:36:14;;;;;;;;;;;;;;;;;;5091593;27;19916;-68
2023/05/31 21:38:41;;;;;;;;;;;;;;;;;;5089674;28;19920;-69
2023/05/31 21:41:07;;;;;;;;;;;;;;;;;;5091260;28;19932;-69